CheckWX is a tool to help pilots better visualize weather data.  It is not intended as a substitute for an official pre-flight weather briefing.

19:44:32 UTC

KIFP TAF
Laughlin / Bullhead International Airport
Bullhead City, Arizona, USA
KIFP 012320Z 0200/0224 18010G20KT P6SM SKC FM020200 16011KT P6SM SKC FM020500 VRB05KT P6SM SKC FM021800 19012G22KT P6SM SKC

Jul-2@
00:00 UTC

Jul-2 @ 00:00 UTC

Jul-2@
02:00 UTC

Jul-2 @ 02:00 UTC

TAF KIFP 012320Z 0200/0224 18010G20KT P6SM SKC

Expired

Wind
  • 180° at 10 KTS
  • {Gusting to 20 KTS
Cloud Levels
  • Clear skies

Jul-2@
02:00 UTC

Jul-2 @ 02:00 UTC

Jul-2@
05:00 UTC

Jul-2 @ 05:00 UTC

FM020200 16011KT P6SM SKC

Expired

Wind
  • 160° at 11 KTS
Cloud Levels
  • Clear skies

Jul-2@
05:00 UTC

Jul-2 @ 05:00 UTC

Jul-2@
18:00 UTC

Jul-2 @ 18:00 UTC

FM020500 VRB05KT P6SM SKC

Expired

Wind
  • Variable at 5 KTS
Cloud Levels
  • Clear skies

Jul-2@
18:00 UTC

Jul-2 @ 18:00 UTC

Jul-3@
00:00 UTC

Jul-3 @ 00:00 UTC

FM021800 19012G22KT P6SM SKC

From

From Standard forecast or significant change

Wind
  • 190° at 12 KTS
  • {Gusting to 22 KTS
Cloud Levels
  • Clear skies